createdAt,value
2023-04-12T00:00:02.755Z,4.80
2023-04-12T00:02:54.522Z,4.90
2023-04-12T00:05:23.442Z,5.20
2023-04-12T00:07:53.382Z,5.40
2023-04-12T00:10:22.688Z,4.90
2023-04-12T00:12:50.856Z,4.90
2023-04-12T00:15:19.244Z,5.10
2023-04-12T00:17:47.965Z,4.60
2023-04-12T00:20:16.720Z,5.20
2023-04-12T00:22:45.192Z,5.10
2023-04-12T00:25:13.370Z,4.40
2023-04-12T00:27:42.156Z,4.60
2023-04-12T00:30:11.155Z,4.40
2023-04-12T00:32:39.505Z,4.50
2023-04-12T00:35:08.421Z,4.30
2023-04-12T00:37:37.004Z,4.00
2023-04-12T00:40:10.305Z,4.10
2023-04-12T00:42:39.289Z,4.20
2023-04-12T00:45:08.497Z,4.20
2023-04-12T00:47:39.581Z,4.80
2023-04-12T00:50:09.544Z,4.10
2023-04-12T00:52:39.358Z,4.40
2023-04-12T00:55:10.021Z,4.00
2023-04-12T00:57:40.208Z,4.40
2023-04-12T01:00:12.687Z,4.30
2023-04-12T01:02:50.730Z,4.50
2023-04-12T01:05:22.859Z,4.60
2023-04-12T01:08:05.094Z,5.20
2023-04-12T01:11:01.825Z,4.90
2023-04-12T01:13:41.229Z,6.10
2023-04-12T01:16:47.969Z,5.90
2023-04-12T01:19:31.950Z,5.70
2023-04-12T01:22:27.669Z,5.90
2023-04-12T01:25:24.469Z,6.30
2023-04-12T01:28:02.821Z,6.60
2023-04-12T01:30:32.685Z,6.00
2023-04-12T01:33:03.416Z,5.90
2023-04-12T01:35:34.900Z,5.80
2023-04-12T01:38:04.529Z,7.10
2023-04-12T01:40:33.818Z,6.30
2023-04-12T01:43:12.349Z,6.00
2023-04-12T01:45:40.952Z,5.50
2023-04-12T01:48:12.526Z,5.60
2023-04-12T01:51:02.774Z,5.70
2023-04-12T01:53:39.859Z,5.40
2023-04-12T01:56:10.241Z,5.90
2023-04-12T01:58:42.968Z,5.60
2023-04-12T02:01:13.960Z,4.70
2023-04-12T02:03:43.655Z,4.70
2023-04-12T02:06:12.609Z,5.20
2023-04-12T02:08:41.147Z,4.80
2023-04-12T02:11:11.536Z,5.00
2023-04-12T02:13:39.792Z,4.70
2023-04-12T02:16:11.019Z,4.50
2023-04-12T02:18:41.683Z,4.60
2023-04-12T02:21:10.865Z,5.50
2023-04-12T02:23:39.040Z,5.10
2023-04-12T02:26:08.032Z,4.80
2023-04-12T02:28:38.101Z,5.10
2023-04-12T02:31:07.404Z,5.70
2023-04-12T02:33:36.347Z,5.60
2023-04-12T02:36:10.447Z,5.90
2023-04-12T02:38:38.722Z,6.20
2023-04-12T02:41:08.124Z,6.00
2023-04-12T02:43:37.020Z,5.70
2023-04-12T02:46:09.412Z,6.60
2023-04-12T02:48:44.319Z,6.70
2023-04-12T02:51:13.315Z,7.70
2023-04-12T02:53:42.210Z,7.30
2023-04-12T02:56:37.210Z,6.70
2023-04-12T02:59:11.732Z,6.50
2023-04-12T03:01:58.402Z,7.00
2023-04-12T03:04:30.829Z,7.50
2023-04-12T03:07:01.235Z,7.10
2023-04-12T03:09:51.836Z,7.30
2023-04-12T03:12:21.955Z,7.50
2023-04-12T03:14:57.522Z,6.80
2023-04-12T03:17:27.128Z,7.40
2023-04-12T03:19:55.995Z,6.80
2023-04-12T03:22:26.326Z,6.80
2023-04-12T03:27:25.634Z,7.10
2023-04-12T03:29:54.628Z,6.90
2023-04-12T03:32:24.998Z,5.90
2023-04-12T03:34:53.634Z,7.90
2023-04-12T03:37:26.378Z,5.90
2023-04-12T03:39:57.661Z,7.50
2023-04-12T03:42:33.473Z,6.50
2023-04-12T03:47:39.016Z,7.10
2023-04-12T03:50:11.934Z,5.90
2023-04-12T03:52:44.134Z,6.20
2023-04-12T03:55:13.855Z,6.90
2023-04-12T03:57:42.743Z,7.20
2023-04-12T04:00:12.760Z,6.60
2023-04-12T04:02:53.598Z,7.20
2023-04-12T04:05:22.303Z,7.00
2023-04-12T04:07:51.408Z,6.70
2023-04-12T04:10:19.772Z,7.50
2023-04-12T04:12:48.359Z,7.60
2023-04-12T04:15:17.452Z,7.80
2023-04-12T04:17:48.398Z,8.60
2023-04-12T04:20:19.126Z,7.60
2023-04-12T04:22:50.284Z,7.50
2023-04-12T04:25:20.156Z,8.00
2023-04-12T04:27:52.352Z,8.10
2023-04-12T04:30:23.301Z,9.40
2023-04-12T04:32:51.992Z,9.20
2023-04-12T04:35:24.406Z,9.70
2023-04-12T04:38:05.323Z,9.20
2023-04-12T04:40:33.722Z,10.00
2023-04-12T04:43:03.206Z,9.50
2023-04-12T04:45:36.609Z,10.30
2023-04-12T04:48:05.391Z,9.40
2023-04-12T04:50:34.077Z,10.50
2023-04-12T04:53:03.577Z,10.00
2023-04-12T04:55:33.783Z,9.10
2023-04-12T04:58:02.195Z,9.50
2023-04-12T05:00:30.763Z,9.30
2023-04-12T05:02:59.904Z,9.20
2023-04-12T05:05:30.589Z,9.00
2023-04-12T05:08:06.853Z,9.70
2023-04-12T05:10:36.359Z,9.20
2023-04-12T05:13:04.743Z,8.90
2023-04-12T05:15:33.419Z,8.90
2023-04-12T05:18:02.340Z,9.30
2023-04-12T05:20:32.116Z,9.30
2023-04-12T05:23:01.419Z,9.20
2023-04-12T05:25:30.006Z,9.20
2023-04-12T05:28:07.396Z,10.60
2023-04-12T05:30:35.922Z,11.00
2023-04-12T05:33:04.794Z,10.30
2023-04-12T05:35:33.258Z,9.20
2023-04-12T05:38:01.869Z,8.60
2023-04-12T05:40:32.020Z,8.30
2023-04-12T05:43:00.400Z,8.90
2023-04-12T05:45:31.476Z,8.40
2023-04-12T05:48:00.245Z,8.30
2023-04-12T05:50:28.534Z,9.20
2023-04-12T05:52:57.117Z,9.70
2023-04-12T05:55:29.934Z,10.60
2023-04-12T05:57:58.875Z,10.60
2023-04-12T06:00:28.267Z,10.80
2023-04-12T06:02:58.639Z,10.80
2023-04-12T06:05:27.098Z,10.20
2023-04-12T06:07:55.480Z,10.60
2023-04-12T06:10:23.759Z,10.50
2023-04-12T06:12:54.595Z,10.90
2023-04-12T06:15:22.987Z,10.80
2023-04-12T06:17:56.257Z,11.70
2023-04-12T06:20:24.655Z,11.20
2023-04-12T06:22:53.237Z,12.70
2023-04-12T06:25:23.237Z,10.50
2023-04-12T06:27:51.938Z,11.80
2023-04-12T06:30:21.736Z,10.70
2023-04-12T06:32:53.323Z,10.80
2023-04-12T06:35:23.306Z,10.80
2023-04-12T06:37:51.597Z,10.40
2023-04-12T06:40:19.857Z,10.20
2023-04-12T06:42:48.198Z,10.20
2023-04-12T06:45:23.170Z,10.20
2023-04-12T06:47:51.615Z,9.10
2023-04-12T06:50:19.920Z,9.00
2023-04-12T06:52:49.026Z,9.20
2023-04-12T06:55:17.398Z,8.50
2023-04-12T06:57:46.393Z,9.00
2023-04-12T07:00:15.174Z,8.40
2023-04-12T07:02:43.715Z,9.10
2023-04-12T07:05:12.250Z,8.80
2023-04-12T07:07:40.522Z,9.40
2023-04-12T07:10:09.210Z,9.60
2023-04-12T07:12:37.687Z,9.80
2023-04-12T07:15:06.674Z,9.30
2023-04-12T07:17:35.664Z,9.30
2023-04-12T07:20:04.461Z,9.90
2023-04-12T07:22:32.633Z,11.00
2023-04-12T07:25:00.920Z,11.20
2023-04-12T07:27:29.181Z,11.10
2023-04-12T07:29:58.750Z,12.40
2023-04-12T07:32:27.598Z,13.10
2023-04-12T07:34:56.167Z,14.00
2023-04-12T07:37:24.544Z,16.00
2023-04-12T07:39:53.162Z,17.40
2023-04-12T07:42:21.915Z,13.60
2023-04-12T07:44:50.285Z,13.60
2023-04-12T07:47:18.469Z,13.60
2023-04-12T07:49:46.742Z,12.80
2023-04-12T07:52:14.934Z,11.40
2023-04-12T07:54:43.109Z,11.00
2023-04-12T07:57:11.462Z,10.90
2023-04-12T07:59:39.572Z,10.00
2023-04-12T08:02:07.820Z,10.20
2023-04-12T08:04:36.199Z,9.60
2023-04-12T08:07:04.731Z,9.70
2023-04-12T08:09:33.040Z,9.60
2023-04-12T08:12:01.740Z,10.10
2023-04-12T08:14:29.916Z,9.00
2023-04-12T08:16:58.086Z,9.80
2023-04-12T08:19:26.252Z,8.80
2023-04-12T08:21:54.531Z,8.80
2023-04-12T08:24:22.727Z,8.50
2023-04-12T08:26:51.741Z,7.30
2023-04-12T08:29:20.012Z,7.30
2023-04-12T08:31:48.295Z,8.10
2023-04-12T08:34:17.060Z,7.60
2023-04-12T08:36:45.391Z,7.70
2023-04-12T08:39:13.595Z,8.00
2023-04-12T08:41:42.089Z,7.60
2023-04-12T08:44:12.287Z,8.60
2023-04-12T08:46:41.026Z,9.00
2023-04-12T08:49:11.667Z,8.90
2023-04-12T08:51:42.139Z,8.50
2023-04-12T08:54:11.133Z,8.30
2023-04-12T08:56:44.223Z,9.60
2023-04-12T08:59:13.518Z,8.60
2023-04-12T09:01:42.470Z,8.40
2023-04-12T09:04:11.036Z,9.70
2023-04-12T09:06:39.475Z,8.50
2023-04-12T09:09:08.341Z,8.30
2023-04-12T09:11:37.044Z,9.00
2023-04-12T09:14:21.327Z,8.30
2023-04-12T09:16:50.185Z,9.40
2023-04-12T09:19:32.760Z,9.50
2023-04-12T09:22:02.207Z,9.00
2023-04-12T09:24:30.622Z,9.20
2023-04-12T09:27:06.929Z,8.60
2023-04-12T09:29:35.331Z,8.00
2023-04-12T09:32:06.275Z,8.20
2023-04-12T09:34:36.388Z,8.00
2023-04-12T09:37:16.331Z,8.20
2023-04-12T09:39:44.591Z,8.10
2023-04-12T09:42:31.779Z,7.20
2023-04-12T09:45:18.743Z,7.20
2023-04-12T09:47:47.181Z,8.20
2023-04-12T09:50:23.694Z,6.70
2023-04-12T09:52:53.493Z,6.30
2023-04-12T09:55:23.588Z,7.00
2023-04-12T09:57:54.085Z,6.60
2023-04-12T10:00:25.639Z,6.50
2023-04-12T10:02:55.931Z,6.80
2023-04-12T10:05:26.913Z,6.40
2023-04-12T10:07:58.531Z,7.40
2023-04-12T10:10:30.970Z,6.50
2023-04-12T10:13:00.834Z,6.90
2023-04-12T10:15:30.679Z,6.80
2023-04-12T10:18:14.730Z,7.40
2023-04-12T10:20:43.462Z,7.40
2023-04-12T10:23:16.915Z,7.40
2023-04-12T10:25:48.567Z,9.20
2023-04-12T10:28:21.925Z,7.80
2023-04-12T10:30:52.169Z,7.40
2023-04-12T10:33:26.810Z,7.40
2023-04-12T10:35:55.232Z,8.00
2023-04-12T10:38:27.046Z,7.90
2023-04-12T10:41:16.670Z,7.90
2023-04-12T10:43:47.388Z,8.00
2023-04-12T10:46:37.568Z,8.40
2023-04-12T10:49:10.659Z,8.10
2023-04-12T10:54:15.997Z,8.00
2023-04-12T10:56:48.286Z,8.10
2023-04-12T10:59:34.184Z,7.60
2023-04-12T11:02:12.007Z,7.40
2023-04-12T11:05:09.146Z,7.80
2023-04-12T11:07:56.458Z,7.30
2023-04-12T11:10:47.130Z,6.80
2023-04-12T11:13:20.883Z,7.10
2023-04-12T11:15:55.077Z,7.20
2023-04-12T11:18:23.699Z,6.80
2023-04-12T11:20:53.249Z,6.50
2023-04-12T11:23:22.164Z,7.30
2023-04-12T11:25:54.757Z,7.70
2023-04-12T11:28:29.717Z,7.60
2023-04-12T11:30:59.299Z,7.20
2023-04-12T11:33:39.156Z,7.40
2023-04-12T11:36:08.963Z,7.70
2023-04-12T11:38:38.288Z,7.60
2023-04-12T11:41:08.885Z,7.10
2023-04-12T11:43:40.544Z,8.20
2023-04-12T11:46:09.518Z,7.70
2023-04-12T11:48:39.032Z,8.40
2023-04-12T11:51:31.564Z,8.80
2023-04-12T11:54:00.833Z,9.30
2023-04-12T11:56:29.948Z,7.60
2023-04-12T11:58:58.229Z,8.10
2023-04-12T12:01:34.292Z,7.80
2023-04-12T12:04:03.057Z,9.00
2023-04-12T12:06:32.604Z,8.10
2023-04-12T12:09:01.062Z,8.60
2023-04-12T12:11:29.640Z,10.10
2023-04-12T12:14:00.515Z,13.20
2023-04-12T12:16:30.501Z,9.70
2023-04-12T12:18:58.772Z,7.50
2023-04-12T12:21:27.860Z,7.80
2023-04-12T12:23:57.476Z,8.50
2023-04-12T12:26:30.805Z,8.90
2023-04-12T12:29:02.018Z,8.50
2023-04-12T12:31:30.998Z,7.40
2023-04-12T12:34:01.112Z,7.00
2023-04-12T12:36:36.232Z,6.80
2023-04-12T12:39:12.671Z,7.90
2023-04-12T12:41:41.568Z,6.40
2023-04-12T12:44:11.483Z,6.60
2023-04-12T12:46:51.881Z,6.40
2023-04-12T12:49:22.421Z,6.90
2023-04-12T12:51:51.342Z,6.00
2023-04-12T12:54:36.133Z,6.40
2023-04-12T12:57:07.740Z,5.80
2023-04-12T12:59:36.028Z,5.70
2023-04-12T13:02:05.632Z,6.00
2023-04-12T13:04:34.354Z,6.40
2023-04-12T13:07:02.922Z,6.60
2023-04-12T13:09:32.530Z,7.10
2023-04-12T13:12:02.366Z,7.60
2023-04-12T13:14:30.898Z,7.50
2023-04-12T13:17:01.007Z,8.00
2023-04-12T13:19:29.691Z,8.40
2023-04-12T13:22:01.757Z,8.70
2023-04-12T13:24:31.086Z,8.30
2023-04-12T13:26:59.651Z,9.90
2023-04-12T13:29:27.925Z,8.90
2023-04-12T13:31:56.320Z,8.70
2023-04-12T13:34:25.179Z,8.40
2023-04-12T13:36:53.972Z,10.00
2023-04-12T13:39:22.448Z,9.10
2023-04-12T13:41:51.753Z,11.80
2023-04-12T13:44:20.669Z,9.80
2023-04-12T13:46:48.812Z,9.00
2023-04-12T13:49:19.973Z,8.30
2023-04-12T13:51:48.439Z,8.60
2023-04-12T13:54:17.693Z,9.00
2023-04-12T13:56:46.019Z,8.60
2023-04-12T13:59:14.803Z,13.50
2023-04-12T14:01:43.297Z,9.20
2023-04-12T14:04:11.581Z,10.30
2023-04-12T14:06:39.953Z,8.70
2023-04-12T14:09:09.032Z,8.00
2023-04-12T14:11:49.493Z,10.60
2023-04-12T14:14:17.766Z,9.20
2023-04-12T14:16:46.821Z,9.00
2023-04-12T14:19:15.040Z,7.10
2023-04-12T14:21:43.144Z,7.50
2023-04-12T14:24:11.282Z,6.80
2023-04-12T14:26:42.812Z,7.20
2023-04-12T14:29:11.730Z,7.50
2023-04-12T14:31:40.048Z,8.30
2023-04-12T14:34:09.100Z,8.50
2023-04-12T14:36:37.487Z,8.30
2023-04-12T14:39:08.462Z,8.90
2023-04-12T14:41:38.445Z,10.00
2023-04-12T14:44:06.711Z,9.90
2023-04-12T14:46:34.988Z,9.80
2023-04-12T14:49:03.390Z,9.90
2023-04-12T14:51:32.451Z,10.10
2023-04-12T14:54:00.934Z,10.80
2023-04-12T14:56:30.792Z,10.70
2023-04-12T14:58:59.832Z,10.40
2023-04-12T15:01:28.816Z,12.30
2023-04-12T15:03:57.241Z,12.30
2023-04-12T15:06:27.338Z,11.70
2023-04-12T15:08:55.495Z,11.60
2023-04-12T15:11:27.444Z,11.20
2023-04-12T15:13:56.191Z,10.50
2023-04-12T15:16:24.763Z,11.20
2023-04-12T15:18:52.915Z,13.90
2023-04-12T15:21:21.286Z,11.80
2023-04-12T15:23:49.413Z,13.20
2023-04-12T15:26:17.634Z,12.10
2023-04-12T15:28:46.522Z,12.20
2023-04-12T15:31:14.939Z,11.70
2023-04-12T15:33:43.182Z,11.40
2023-04-12T15:36:11.273Z,11.50
2023-04-12T15:38:43.213Z,10.90
2023-04-12T15:41:11.385Z,11.10
2023-04-12T15:43:39.571Z,11.60
2023-04-12T15:46:07.832Z,12.00
2023-04-12T15:48:38.979Z,11.70
2023-04-12T15:51:07.769Z,11.50
2023-04-12T15:53:36.159Z,12.30
2023-04-12T15:56:04.832Z,11.50
2023-04-12T15:58:33.009Z,12.40
2023-04-12T16:01:01.321Z,11.70
2023-04-12T16:03:31.830Z,11.50
2023-04-12T16:06:00.096Z,10.90
2023-04-12T16:08:28.462Z,10.70
2023-04-12T16:10:57.048Z,10.70
2023-04-12T16:13:25.422Z,11.10
2023-04-12T16:15:53.641Z,11.80
2023-04-12T16:18:21.806Z,13.10
2023-04-12T16:20:50.148Z,15.70
2023-04-12T16:23:18.424Z,14.00
2023-04-12T16:25:47.730Z,13.90
2023-04-12T16:28:18.360Z,14.50
2023-04-12T16:30:47.053Z,14.00
2023-04-12T16:33:15.217Z,13.90
2023-04-12T16:35:44.516Z,14.00
2023-04-12T16:38:14.766Z,12.70
2023-04-12T16:40:44.857Z,13.10
2023-04-12T16:43:13.031Z,12.90
2023-04-12T16:45:45.691Z,13.90
2023-04-12T16:48:16.616Z,14.20
2023-04-12T16:50:46.988Z,13.90
2023-04-12T16:53:16.583Z,16.60
2023-04-12T16:55:49.891Z,18.00
2023-04-12T16:58:18.483Z,14.10
2023-04-12T17:00:46.728Z,16.60
2023-04-12T17:03:16.570Z,14.40
2023-04-12T17:05:46.051Z,13.10
2023-04-12T17:08:15.981Z,11.50
2023-04-12T17:10:45.067Z,18.00
2023-04-12T17:13:19.381Z,21.10
2023-04-12T17:15:48.552Z,35.90
2023-04-12T17:18:16.987Z,143.80
2023-04-12T17:20:46.346Z,219.40
2023-04-12T17:23:16.223Z,42.90
2023-04-12T17:25:44.647Z,25.30
2023-04-12T17:28:13.178Z,15.80
2023-04-12T17:30:41.907Z,11.50
2023-04-12T17:33:10.187Z,18.60
2023-04-12T17:35:38.568Z,11.30
2023-04-12T17:38:06.875Z,13.40
2023-04-12T17:40:35.094Z,14.60
2023-04-12T17:43:03.698Z,19.40
2023-04-12T17:45:33.882Z,24.70
2023-04-12T17:48:02.274Z,13.00
2023-04-12T17:50:30.779Z,13.50
2023-04-12T17:53:00.490Z,15.20
2023-04-12T17:55:28.714Z,12.20
2023-04-12T17:57:57.033Z,12.60
2023-04-12T18:00:26.781Z,17.70
2023-04-12T18:02:55.881Z,26.70
2023-04-12T18:05:24.222Z,13.40
2023-04-12T18:07:52.395Z,14.50
2023-04-12T18:10:23.334Z,11.20
2023-04-12T18:12:51.613Z,10.70
2023-04-12T18:15:20.096Z,9.80
2023-04-12T18:17:48.368Z,10.70
2023-04-12T18:20:17.377Z,10.40
2023-04-12T18:22:46.076Z,10.80
2023-04-12T18:25:14.958Z,11.10
2023-04-12T18:27:47.689Z,11.20
2023-04-12T18:30:17.501Z,9.80
2023-04-12T18:32:45.907Z,11.50
2023-04-12T18:35:14.220Z,9.30
2023-04-12T18:37:43.784Z,8.10
2023-04-12T18:40:13.353Z,7.80
2023-04-12T18:42:42.862Z,11.80
2023-04-12T18:45:11.594Z,8.60
2023-04-12T18:47:40.699Z,7.90
2023-04-12T18:50:10.157Z,7.60
2023-04-12T18:52:38.889Z,8.90
2023-04-12T18:55:08.449Z,6.90
2023-04-12T18:57:36.665Z,7.50
2023-04-12T19:00:10.521Z,7.10
2023-04-12T19:02:39.626Z,7.30
2023-04-12T19:05:10.389Z,6.80
2023-04-12T19:07:38.542Z,7.80
2023-04-12T19:10:08.708Z,7.50
2023-04-12T19:12:37.058Z,8.30
2023-04-12T19:15:09.738Z,9.90
2023-04-12T19:17:39.165Z,8.10
2023-04-12T19:20:08.345Z,7.40
2023-04-12T19:22:37.430Z,9.30
2023-04-12T19:25:06.223Z,8.00
2023-04-12T19:27:34.498Z,9.00
2023-04-12T19:30:04.162Z,8.30
2023-04-12T19:32:32.400Z,8.90
2023-04-12T19:35:03.029Z,9.40
2023-04-12T19:37:34.272Z,8.90
2023-04-12T19:40:02.632Z,9.60
2023-04-12T19:42:31.217Z,9.60
2023-04-12T19:45:02.727Z,9.60
2023-04-12T19:47:31.248Z,9.70
2023-04-12T19:49:59.668Z,9.90
2023-04-12T19:52:28.526Z,10.90
2023-04-12T19:54:58.263Z,10.50
2023-04-12T19:57:28.655Z,13.30
2023-04-12T19:59:56.835Z,10.20
2023-04-12T20:02:25.040Z,12.20
2023-04-12T20:04:54.427Z,12.40
2023-04-12T20:07:24.312Z,12.60
2023-04-12T20:09:52.401Z,32.00
2023-04-12T20:12:20.565Z,15.80
2023-04-12T20:14:48.634Z,12.50
2023-04-12T20:17:17.430Z,12.40
2023-04-12T20:19:45.610Z,12.80
2023-04-12T20:22:14.182Z,14.00
2023-04-12T20:24:42.452Z,14.00
2023-04-12T20:27:11.659Z,13.70
2023-04-12T20:29:42.184Z,12.90
2023-04-12T20:32:12.540Z,14.00
2023-04-12T20:34:46.668Z,13.80
2023-04-12T20:37:17.418Z,13.40
2023-04-12T20:39:45.738Z,14.00
2023-04-12T20:42:16.264Z,13.60
2023-04-12T20:44:44.324Z,14.80
2023-04-12T20:47:12.783Z,14.10
2023-04-12T20:49:41.190Z,14.50
2023-04-12T20:52:09.777Z,14.70
2023-04-12T20:54:38.568Z,14.70
2023-04-12T20:57:06.730Z,15.40
2023-04-12T20:59:36.134Z,15.30
2023-04-12T21:02:04.828Z,15.80
2023-04-12T21:04:36.289Z,16.40
2023-04-12T21:07:05.616Z,16.10
2023-04-12T21:09:34.255Z,15.80
2023-04-12T21:12:06.320Z,17.80
2023-04-12T21:14:37.778Z,16.50
2023-04-12T21:17:07.383Z,16.50
2023-04-12T21:19:41.184Z,18.40
2023-04-12T21:22:09.886Z,17.40
2023-04-12T21:24:38.684Z,17.80
2023-04-12T21:27:08.579Z,18.40
2023-04-12T21:29:41.460Z,17.90
2023-04-12T21:34:40.469Z,16.10
2023-04-12T21:37:09.376Z,16.90
2023-04-12T21:39:39.537Z,15.80
2023-04-12T21:42:08.063Z,16.10
2023-04-12T21:44:36.346Z,15.50
2023-04-12T21:47:04.608Z,15.10
2023-04-12T21:49:34.423Z,14.80
2023-04-12T21:52:02.596Z,14.80
2023-04-12T21:54:31.632Z,15.30
2023-04-12T21:56:59.867Z,15.00
2023-04-12T21:59:28.139Z,15.30
2023-04-12T22:01:56.422Z,14.10
2023-04-12T22:04:24.694Z,15.30
2023-04-12T22:06:53.178Z,14.90
2023-04-12T22:09:21.362Z,14.60
2023-04-12T22:11:49.937Z,14.70
2023-04-12T22:14:18.433Z,14.80
2023-04-12T22:16:47.012Z,15.40
2023-04-12T22:19:16.773Z,15.20
2023-04-12T22:21:45.741Z,15.10
2023-04-12T22:24:16.440Z,16.10
2023-04-12T22:26:44.608Z,16.50
2023-04-12T22:29:12.877Z,14.30
2023-04-12T22:31:40.929Z,17.20
2023-04-12T22:34:09.123Z,16.10
2023-04-12T22:36:42.438Z,17.10
2023-04-12T22:39:11.100Z,17.50
2023-04-12T22:41:39.186Z,17.40
2023-04-12T22:44:09.393Z,17.40
2023-04-12T22:46:39.152Z,18.00
2023-04-12T22:49:07.989Z,18.60
2023-04-12T22:51:37.291Z,17.50
2023-04-12T22:54:08.820Z,19.70
2023-04-12T22:56:47.275Z,18.50
2023-04-12T22:59:17.172Z,17.80
2023-04-12T23:01:46.613Z,18.70
2023-04-12T23:04:16.348Z,18.70
2023-04-12T23:06:44.763Z,17.00
2023-04-12T23:09:13.366Z,16.10
2023-04-12T23:11:42.030Z,16.10
2023-04-12T23:14:10.627Z,15.90
2023-04-12T23:16:44.391Z,15.50
2023-04-12T23:19:14.915Z,16.30
2023-04-12T23:21:44.047Z,16.00
2023-04-12T23:24:15.523Z,15.50
2023-04-12T23:26:47.458Z,15.60
2023-04-12T23:29:15.629Z,15.30
2023-04-12T23:31:45.559Z,15.80
2023-04-12T23:34:14.027Z,15.40
2023-04-12T23:36:42.300Z,15.70
2023-04-12T23:39:10.496Z,14.90
2023-04-12T23:41:41.040Z,15.50
2023-04-12T23:44:09.695Z,14.80
2023-04-12T23:46:38.923Z,15.50
2023-04-12T23:49:07.269Z,15.90
2023-04-12T23:51:35.547Z,16.50
2023-04-12T23:54:03.818Z,15.80
2023-04-12T23:56:32.208Z,17.30
2023-04-12T23:59:00.377Z,16.90
